createdAt,value
2023-12-18T00:01:40.602Z,99393.25
2023-12-18T00:04:52.100Z,99401.25
2023-12-18T00:07:59.533Z,99406.53
2023-12-18T00:11:10.191Z,99391.53
2023-12-18T00:14:17.387Z,99387.97
2023-12-18T00:17:25.988Z,99384.72
2023-12-18T00:20:33.420Z,99388.28
2023-12-18T00:23:41.418Z,99385.88
2023-12-18T00:26:51.154Z,99395.47
2023-12-18T00:29:59.409Z,99384.22
2023-12-18T00:33:07.039Z,99388.75
2023-12-18T00:36:15.161Z,99387.16
2023-12-18T00:39:30.588Z,99381.88
2023-12-18T00:42:42.207Z,99373.47
2023-12-18T00:45:49.439Z,99374.53
2023-12-18T00:48:57.586Z,99384.00
2023-12-18T00:52:04.940Z,99377.91
2023-12-18T00:55:13.907Z,99367.66
2023-12-18T00:58:23.602Z,99371.16
2023-12-18T01:01:31.686Z,99360.59
2023-12-18T01:04:40.353Z,99353.22
2023-12-18T01:07:48.435Z,99354.06
2023-12-18T01:10:55.655Z,99363.91
2023-12-18T01:14:19.957Z,99347.13
2023-12-18T01:17:33.075Z,99344.59
2023-12-18T01:20:44.479Z,99335.13
2023-12-18T01:23:51.748Z,99349.25
2023-12-18T01:26:59.915Z,99332.81
2023-12-18T01:30:30.971Z,99325.00
2023-12-18T01:33:43.442Z,99325.00
2023-12-18T01:36:51.457Z,99320.69
2023-12-18T01:39:59.519Z,99327.41
2023-12-18T01:43:06.919Z,99324.69
2023-12-18T01:46:26.075Z,99320.03
2023-12-18T01:49:33.509Z,99305.47
2023-12-18T01:52:44.168Z,99310.53
2023-12-18T01:56:01.994Z,99306.22
2023-12-18T01:59:12.797Z,99306.22
2023-12-18T02:02:23.462Z,99285.53
2023-12-18T02:05:33.110Z,99301.47
2023-12-18T02:08:42.729Z,99290.19
2023-12-18T02:11:50.935Z,99291.63
2023-12-18T02:14:58.656Z,99297.63
2023-12-18T02:18:09.734Z,99289.72
2023-12-18T02:21:23.993Z,99281.06
2023-12-18T02:24:34.735Z,99286.69
2023-12-18T02:27:43.754Z,99279.84
2023-12-18T02:30:53.234Z,99278.78
2023-12-18T02:34:00.643Z,99277.09
2023-12-18T02:37:11.454Z,99277.00
2023-12-18T02:40:21.525Z,99280.47
2023-12-18T02:43:29.548Z,99270.75
2023-12-18T02:46:43.196Z,99271.63
2023-12-18T02:49:59.952Z,99266.34
2023-12-18T02:53:20.486Z,99264.66
2023-12-18T02:56:30.985Z,99269.91
2023-12-18T02:59:38.831Z,99258.66
2023-12-18T03:02:48.112Z,99268.34
2023-12-18T03:05:55.355Z,99267.75
2023-12-18T03:09:03.432Z,99260.06
2023-12-18T03:12:13.495Z,99266.38
2023-12-18T03:15:35.104Z,99265.19
2023-12-18T03:18:42.481Z,99259.19
2023-12-18T03:21:50.842Z,99255.84
2023-12-18T03:24:58.149Z,99254.97
2023-12-18T03:28:23.499Z,99247.22
2023-12-18T03:31:30.676Z,99251.00
2023-12-18T03:34:38.730Z,99242.59
2023-12-18T03:37:45.865Z,99253.22
2023-12-18T03:40:53.822Z,99249.84
2023-12-18T03:44:05.172Z,99249.94
2023-12-18T03:47:13.707Z,99261.97
2023-12-18T03:50:24.693Z,99254.97
2023-12-18T03:53:32.853Z,99242.78
2023-12-18T03:56:39.990Z,99246.97
2023-12-18T03:59:50.656Z,99245.91
2023-12-18T04:02:58.243Z,99245.09
2023-12-18T04:06:06.313Z,99253.00
2023-12-18T04:09:13.697Z,99250.13
2023-12-18T04:12:22.343Z,99252.44
2023-12-18T04:15:38.581Z,99261.91
2023-12-18T04:18:54.123Z,99259.16
2023-12-18T04:22:01.257Z,99266.97
2023-12-18T04:25:11.086Z,99256.41
2023-12-18T04:28:21.210Z,99253.66
2023-12-18T04:31:39.171Z,99232.41
2023-12-18T04:34:47.456Z,99247.53
2023-12-18T04:37:55.535Z,99246.59
2023-12-18T04:41:09.203Z,99251.16
2023-12-18T04:44:37.359Z,99264.19
2023-12-18T04:47:48.068Z,99257.16
2023-12-18T04:50:58.365Z,99251.16
2023-12-18T04:54:24.181Z,99254.72
2023-12-18T04:57:52.427Z,99262.75
2023-12-18T05:00:59.948Z,99257.56
2023-12-18T05:04:31.236Z,99255.91
2023-12-18T05:07:38.544Z,99256.88
2023-12-18T05:10:46.507Z,99267.78
2023-12-18T05:13:54.467Z,99275.69
2023-12-18T05:17:02.472Z,99284.22
2023-12-18T05:20:14.504Z,99287.59
2023-12-18T05:23:22.589Z,99284.34
2023-12-18T05:26:31.074Z,99283.53
2023-12-18T05:29:39.057Z,99277.72
2023-12-18T05:32:46.454Z,99276.03
2023-12-18T05:35:57.490Z,99288.38
2023-12-18T05:39:04.718Z,99282.28
2023-12-18T05:42:16.303Z,99286.81
2023-12-18T05:45:23.570Z,99294.72
2023-12-18T05:48:34.017Z,99282.72
2023-12-18T05:51:44.194Z,99290.63
2023-12-18T05:54:52.275Z,99285.53
2023-12-18T05:58:09.791Z,99292.84
2023-12-18T06:01:17.911Z,99305.28
2023-12-18T06:04:25.126Z,99310.03
2023-12-18T06:07:38.784Z,99307.53
2023-12-18T06:10:48.640Z,99315.31
2023-12-18T06:13:56.721Z,99313.00
2023-12-18T06:17:10.242Z,99307.00
2023-12-18T06:20:38.916Z,99309.22
2023-12-18T06:23:54.099Z,99305.97
2023-12-18T06:27:04.635Z,99305.44
2023-12-18T06:30:13.743Z,99295.88
2023-12-18T06:33:21.819Z,99299.13
2023-12-18T06:36:29.124Z,99292.19
2023-12-18T06:39:40.028Z,99290.59
2023-12-18T06:42:47.290Z,99290.91
2023-12-18T06:45:55.619Z,99286.09
2023-12-18T06:49:02.881Z,99289.03
2023-12-18T06:52:10.881Z,99281.13
2023-12-18T06:55:20.789Z,99283.56
2023-12-18T06:58:28.690Z,99286.72
2023-12-18T07:01:48.109Z,99290.63
2023-12-18T07:04:56.227Z,99296.19
2023-12-18T07:08:04.033Z,99290.81
2023-12-18T07:11:15.764Z,99294.09
2023-12-18T07:14:22.834Z,99290.31
2023-12-18T07:17:30.782Z,99296.31
2023-12-18T07:20:37.995Z,99290.84
2023-12-18T07:23:46.852Z,99290.63
2023-12-18T07:26:56.667Z,99285.34
2023-12-18T07:30:04.959Z,99280.59
2023-12-18T07:33:12.783Z,99270.69
2023-12-18T07:36:20.857Z,99276.38
2023-12-18T07:39:28.181Z,99275.13
2023-12-18T07:42:38.754Z,99286.91
2023-12-18T07:45:45.962Z,99298.50
2023-12-18T07:48:55.216Z,99292.53
2023-12-18T07:52:02.557Z,99296.09
2023-12-18T07:55:12.230Z,99306.72
2023-12-18T07:58:22.008Z,99308.47
2023-12-18T08:01:30.272Z,99292.59
2023-12-18T08:04:37.820Z,99290.50
2023-12-18T08:07:45.903Z,99292.16
2023-12-18T08:10:53.117Z,99297.00
2023-12-18T08:14:04.084Z,99297.03
2023-12-18T08:17:11.315Z,99296.81
2023-12-18T08:20:20.513Z,99285.28
2023-12-18T08:23:28.086Z,99289.63
2023-12-18T08:26:36.087Z,99279.28
2023-12-18T08:29:46.617Z,99280.03
2023-12-18T08:32:55.613Z,99283.41
2023-12-18T08:36:09.507Z,99279.03
2023-12-18T08:39:20.929Z,99286.00
2023-12-18T08:42:29.169Z,99284.66
2023-12-18T08:45:40.120Z,99279.97
2023-12-18T08:48:47.386Z,99286.16
2023-12-18T08:51:55.469Z,99275.25
2023-12-18T08:55:02.618Z,99274.72
2023-12-18T08:58:12.220Z,99275.09
2023-12-18T09:01:22.104Z,99262.00
2023-12-18T09:04:31.957Z,99263.19
2023-12-18T09:07:39.222Z,99257.41
2023-12-18T09:10:47.553Z,99263.13
2023-12-18T09:13:54.718Z,99260.78
2023-12-18T09:17:09.702Z,99244.13
2023-12-18T09:20:36.222Z,99247.00
2023-12-18T09:23:45.757Z,99248.00
2023-12-18T09:26:52.970Z,99259.88
2023-12-18T09:30:00.951Z,99253.50
2023-12-18T09:33:10.962Z,99248.97
2023-12-18T09:36:19.456Z,99237.03
2023-12-18T09:39:26.912Z,99241.19
2023-12-18T09:42:35.025Z,99234.97
2023-12-18T09:45:42.443Z,99236.16
2023-12-18T09:49:03.777Z,99234.16
2023-12-18T09:52:28.289Z,99240.34
2023-12-18T09:55:45.717Z,99236.16
2023-12-18T09:58:53.633Z,99232.81
2023-12-18T10:02:04.419Z,99234.47
2023-12-18T10:05:14.749Z,99234.31
2023-12-18T10:08:22.849Z,99239.31
2023-12-18T10:11:31.361Z,99229.78
2023-12-18T10:14:39.426Z,99219.75
2023-12-18T10:17:49.936Z,99216.38
2023-12-18T10:21:01.016Z,99217.59
2023-12-18T10:24:19.922Z,99219.25
2023-12-18T10:27:28.037Z,99214.63
2023-12-18T10:30:36.019Z,99204.91
2023-12-18T10:33:44.660Z,99209.91
2023-12-18T10:36:59.488Z,99203.06
2023-12-18T10:40:13.256Z,99201.56
2023-12-18T10:43:36.990Z,99189.13
2023-12-18T10:46:52.281Z,99190.34
2023-12-18T10:50:04.600Z,99185.38
2023-12-18T10:53:18.024Z,99186.22
2023-12-18T10:56:46.583Z,99173.34
2023-12-18T10:59:55.134Z,99165.44
2023-12-18T11:03:05.530Z,99156.94
2023-12-18T11:06:17.693Z,99166.47
2023-12-18T11:09:28.290Z,99163.50
2023-12-18T11:12:55.383Z,99163.78
2023-12-18T11:16:33.942Z,99150.97
2023-12-18T11:20:12.532Z,99151.44
2023-12-18T11:23:37.425Z,99149.97
2023-12-18T11:26:49.640Z,99153.97
2023-12-18T11:29:59.256Z,99150.66
2023-12-18T11:33:09.782Z,99128.94
2023-12-18T11:36:28.289Z,99123.75
2023-12-18T11:39:43.439Z,99120.25
2023-12-18T11:42:54.156Z,99120.06
2023-12-18T11:49:17.484Z,99126.44
2023-12-18T11:52:36.128Z,99131.13
2023-12-18T11:55:57.580Z,99133.72
2023-12-18T11:59:08.930Z,99135.59
2023-12-18T12:02:18.814Z,99132.59
2023-12-18T12:05:27.692Z,99126.59
2023-12-18T12:08:46.888Z,99125.91
2023-12-18T12:11:55.834Z,99128.91
2023-12-18T12:15:06.489Z,99127.25
2023-12-18T12:18:14.652Z,99121.91
2023-12-18T12:21:24.901Z,99117.25
2023-12-18T12:24:42.312Z,99130.53
2023-12-18T12:27:49.719Z,99121.53
2023-12-18T12:31:00.728Z,99124.41
2023-12-18T12:34:08.314Z,99118.41
2023-12-18T12:37:16.326Z,99132.94
2023-12-18T12:40:24.900Z,99133.50
2023-12-18T12:43:32.971Z,99134.69
2023-12-18T12:46:43.241Z,99139.16
2023-12-18T12:49:52.527Z,99122.78
2023-12-18T12:53:11.371Z,99120.69
2023-12-18T12:56:19.727Z,99110.31
2023-12-18T12:59:26.977Z,99102.72
2023-12-18T13:02:38.115Z,99113.22
2023-12-18T13:05:45.784Z,99116.50
2023-12-18T13:08:53.983Z,99117.25
2023-12-18T13:12:03.961Z,99118.94
2023-12-18T13:15:12.958Z,99121.41
2023-12-18T13:18:23.962Z,99125.28
2023-12-18T13:21:32.283Z,99115.09
2023-12-18T13:24:40.172Z,99110.03
2023-12-18T13:27:48.510Z,99118.91
2023-12-18T13:30:55.803Z,99116.81
2023-12-18T13:34:06.837Z,99115.16
2023-12-18T13:37:15.563Z,99103.75
2023-12-18T13:40:23.942Z,99102.69
2023-12-18T13:43:31.059Z,99122.78
2023-12-18T13:46:39.159Z,99131.25
2023-12-18T13:49:49.289Z,99118.75
2023-12-18T13:52:57.483Z,99118.13
2023-12-18T13:56:17.888Z,99128.25
2023-12-18T13:59:25.880Z,99123.53
2023-12-18T14:02:34.893Z,99114.03
2023-12-18T14:05:45.500Z,99115.44
2023-12-18T14:08:57.288Z,99121.22
2023-12-18T14:12:12.827Z,99120.38
2023-12-18T14:15:20.080Z,99117.44
2023-12-18T14:18:28.184Z,99115.59
2023-12-18T14:21:38.211Z,99117.97
2023-12-18T14:24:59.645Z,99115.59
2023-12-18T14:28:32.426Z,99104.72
2023-12-18T14:31:50.252Z,99102.41
2023-12-18T14:34:57.572Z,99118.97
2023-12-18T14:38:09.029Z,99122.47
2023-12-18T14:41:24.843Z,99122.44
2023-12-18T14:44:37.781Z,99124.38
2023-12-18T14:47:45.152Z,99123.09
2023-12-18T14:50:54.559Z,99118.59
2023-12-18T14:54:04.743Z,99123.03
2023-12-18T14:57:19.400Z,99127.19
2023-12-18T15:00:26.983Z,99127.28
2023-12-18T15:03:35.115Z,99119.97
2023-12-18T15:06:50.470Z,99104.41
2023-12-18T15:10:07.493Z,99104.84
2023-12-18T15:13:34.641Z,99101.13
2023-12-18T15:16:43.418Z,99103.66
2023-12-18T15:20:03.600Z,99103.22
2023-12-18T15:23:12.031Z,99105.16
2023-12-18T15:26:28.385Z,99120.06
2023-12-18T15:29:47.461Z,99105.75
2023-12-18T15:32:54.761Z,99107.41
2023-12-18T15:36:13.161Z,99115.34
2023-12-18T15:39:25.751Z,99113.81
2023-12-18T15:42:44.033Z,99118.25
2023-12-18T15:45:51.560Z,99107.94
2023-12-18T15:49:02.674Z,99105.66
2023-12-18T15:52:13.549Z,99113.72
2023-12-18T15:55:21.650Z,99113.00
2023-12-18T15:58:31.948Z,99104.38
2023-12-18T16:01:40.064Z,99098.19
2023-12-18T16:04:47.230Z,99092.56
2023-12-18T16:07:55.357Z,99102.28
2023-12-18T16:11:04.026Z,99096.91
2023-12-18T16:14:14.814Z,99103.47
2023-12-18T16:17:22.200Z,99101.78
2023-12-18T16:20:31.487Z,99106.94
2023-12-18T16:23:38.685Z,99107.94
2023-12-18T16:26:50.437Z,99117.53
2023-12-18T16:30:07.481Z,99115.00
2023-12-18T16:33:20.456Z,99113.03
2023-12-18T16:36:29.022Z,99111.31
2023-12-18T16:39:37.105Z,99104.38
2023-12-18T16:42:46.874Z,99097.38
2023-12-18T16:45:57.917Z,99108.22
2023-12-18T16:49:05.623Z,99097.63
2023-12-18T16:52:13.815Z,99099.44
2023-12-18T16:55:21.355Z,99099.44
2023-12-18T16:58:29.360Z,99091.63
2023-12-18T17:01:39.176Z,99085.41
2023-12-18T17:04:47.252Z,99087.06
2023-12-18T17:07:54.514Z,99088.75
2023-12-18T17:11:09.184Z,99083.69
2023-12-18T17:14:17.734Z,99076.75
2023-12-18T17:17:30.854Z,99063.69
2023-12-18T17:20:38.731Z,99066.56
2023-12-18T17:23:46.844Z,99058.50
2023-12-18T17:26:54.078Z,99057.25
2023-12-18T17:30:02.541Z,99059.06
2023-12-18T17:33:12.664Z,99053.69
2023-12-18T17:36:22.203Z,99064.00
2023-12-18T17:39:29.454Z,99061.91
2023-12-18T17:42:43.446Z,99062.56
2023-12-18T17:45:54.814Z,99047.56
2023-12-18T17:49:05.656Z,99047.56
2023-12-18T17:52:12.942Z,99047.66
2023-12-18T17:55:21.129Z,99047.66
2023-12-18T17:58:28.938Z,99047.66
2023-12-18T18:01:37.059Z,99053.34
2023-12-18T18:04:48.826Z,99049.84
2023-12-18T18:07:57.095Z,99042.31
2023-12-18T18:11:05.241Z,99039.28
2023-12-18T18:14:13.834Z,99045.41
2023-12-18T18:17:22.588Z,99041.19
2023-12-18T18:20:33.400Z,99043.66
2023-12-18T18:23:42.118Z,99049.22
2023-12-18T18:26:50.238Z,99048.66
2023-12-18T18:29:57.424Z,99043.63
2023-12-18T18:33:09.410Z,99044.84
2023-12-18T18:36:22.983Z,99042.44
2023-12-18T18:39:31.227Z,99048.44
2023-12-18T18:42:44.285Z,99033.53
2023-12-18T18:45:52.527Z,99045.94
2023-12-18T18:49:00.666Z,99040.97
2023-12-18T18:52:11.703Z,99048.50
2023-12-18T18:55:19.175Z,99050.56
2023-12-18T18:58:27.430Z,99045.28
2023-12-18T19:01:34.747Z,99048.66
2023-12-18T19:04:50.230Z,99039.63
2023-12-18T19:08:00.108Z,99038.53
2023-12-18T19:11:09.303Z,99033.63
2023-12-18T19:14:16.634Z,99044.56
2023-12-18T19:17:31.489Z,99035.81
2023-12-18T19:20:38.724Z,99032.34
2023-12-18T19:23:55.957Z,99028.59
2023-12-18T19:27:15.388Z,99022.31
2023-12-18T19:30:29.502Z,99016.22
2023-12-18T19:33:51.429Z,98998.81
2023-12-18T19:36:59.567Z,98995.44
2023-12-18T19:40:11.326Z,98997.38
2023-12-18T19:43:19.373Z,98992.69
2023-12-18T19:46:27.574Z,98986.78
2023-12-18T19:49:37.274Z,98990.69
2023-12-18T19:52:45.212Z,98985.69
2023-12-18T19:55:55.945Z,98977.78
2023-12-18T19:59:03.673Z,98976.09
2023-12-18T20:02:11.675Z,98972.03
2023-12-18T20:05:19.235Z,98964.69
2023-12-18T20:08:27.667Z,98963.28
2023-12-18T20:11:37.401Z,98956.44
2023-12-18T20:14:45.502Z,98951.69
2023-12-18T20:17:52.814Z,98941.00
2023-12-18T20:21:00.900Z,98936.34
2023-12-18T20:24:09.710Z,98930.19
2023-12-18T20:27:20.765Z,98925.31
2023-12-18T20:30:27.965Z,98919.59
2023-12-18T20:33:36.074Z,98920.50
2023-12-18T20:36:43.521Z,98923.25
2023-12-18T20:39:51.605Z,98911.13
2023-12-18T20:43:02.669Z,98903.59
2023-12-18T20:46:10.768Z,98911.78
2023-12-18T20:49:17.967Z,98904.09
2023-12-18T20:52:25.914Z,98907.72
2023-12-18T20:55:33.190Z,98907.72
2023-12-18T20:58:43.822Z,98908.41
2023-12-18T21:01:51.226Z,98910.81
2023-12-18T21:04:59.294Z,98911.41
2023-12-18T21:08:07.532Z,98905.28
2023-12-18T21:11:15.806Z,98899.75
2023-12-18T21:14:32.626Z,98901.84
2023-12-18T21:17:43.229Z,98901.03
2023-12-18T21:20:50.399Z,98890.34
2023-12-18T21:23:58.441Z,98890.34
2023-12-18T21:27:07.000Z,98886.72
2023-12-18T21:30:18.460Z,98890.91
2023-12-18T21:33:25.881Z,98880.78
2023-12-18T21:36:34.395Z,98881.34
2023-12-18T21:39:44.169Z,98875.81
2023-12-18T21:42:52.206Z,98878.59
2023-12-18T21:46:02.583Z,98877.06
2023-12-18T21:49:11.729Z,98877.31
2023-12-18T21:52:19.044Z,98873.69
2023-12-18T21:55:27.162Z,98872.31
2023-12-18T21:58:34.273Z,98869.66
2023-12-18T22:01:44.955Z,98863.94
2023-12-18T22:04:52.091Z,98853.84
2023-12-18T22:08:00.472Z,98856.91
2023-12-18T22:11:08.437Z,98849.94
2023-12-18T22:14:16.542Z,98865.06
2023-12-18T22:17:26.569Z,98862.69
2023-12-18T22:20:34.558Z,98860.03
2023-12-18T22:23:44.607Z,98853.81
2023-12-18T22:26:53.606Z,98845.75
2023-12-18T22:30:00.902Z,98849.09
2023-12-18T22:33:11.830Z,98846.47
2023-12-18T22:36:19.135Z,98848.28
2023-12-18T22:39:27.175Z,98836.00
2023-12-18T22:42:34.428Z,98841.28
2023-12-18T22:45:42.432Z,98836.28
2023-12-18T22:48:52.261Z,98830.16
2023-12-18T22:52:00.624Z,98829.34
2023-12-18T22:55:11.123Z,98827.78
2023-12-18T22:58:19.083Z,98827.53
2023-12-18T23:01:26.522Z,98825.97
2023-12-18T23:04:37.566Z,98833.19
2023-12-18T23:07:44.996Z,98818.19
2023-12-18T23:10:53.885Z,98824.44
2023-12-18T23:14:06.808Z,98822.63
2023-12-18T23:17:14.741Z,98812.91
2023-12-18T23:20:24.704Z,98810.28
2023-12-18T23:23:32.896Z,98813.75
2023-12-18T23:26:41.068Z,98798.75
2023-12-18T23:29:51.360Z,98789.16
2023-12-18T23:32:58.893Z,98788.44
2023-12-18T23:36:10.756Z,98773.69
2023-12-18T23:39:18.144Z,98774.78
2023-12-18T23:42:26.420Z,98769.78
2023-12-18T23:45:33.851Z,98763.91
2023-12-18T23:48:41.955Z,98756.97
2023-12-18T23:51:54.899Z,98741.78
2023-12-18T23:55:02.876Z,98737.59
2023-12-18T23:58:14.530Z,98725.63
